Time;durP1;ratioP1;P1;durP2;ratioP2;P2;SDS_P1;SDS_P2;PMS_P1;PMS_P2;Temp;Humidity;BMP_temperature;BMP_pressure;BME280_temperature;BME280_humidity;BME280_pressure;Samples;Min_cycle;Max_cycle;Signal;HPM_P1;HPM_P2
2022/08/13 00:00:11;;;;;;;;;;;23.40;80.50;;;;;;2012822;28;19909;-70
2022/08/13 00:01:09;;;;;;;;;;;23.40;80.70;;;;;;2012842;28;20000;-70
2022/08/13 00:02:12;;;;;;;;;;;23.40;80.70;;;;;;2012723;28;20364;-70
2022/08/13 00:03:14;;;;;;;;;;;23.50;80.80;;;;;;2019016;28;19909;-70
2022/08/13 00:04:14;;;;;;;;;;;23.40;80.90;;;;;;2012766;28;19913;-70
2022/08/13 00:05:13;;;;;;;;;;;23.40;80.90;;;;;;2012742;28;19920;-69
2022/08/13 00:06:18;;;;;;;;;;;23.40;80.90;;;;;;2012884;28;19909;-70
2022/08/13 00:07:17;;;;;;;;;;;23.50;81.10;;;;;;2012855;28;19909;-70
2022/08/13 00:08:16;;;;;;;;;;;23.40;81.70;;;;;;2012703;28;19909;-70
2022/08/13 00:09:15;;;;;;;;;;;23.40;81.20;;;;;;2012931;28;19909;-70
2022/08/13 00:10:22;;;;;;;;;;;23.40;81.30;;;;;;2017631;28;19913;-70
2022/08/13 00:12:56;;;;;;;;;;;23.40;81.50;;;;;;2015667;28;20012;-71
2022/08/13 00:13:55;;;;;;;;;;;23.40;81.70;;;;;;2012921;28;19917;-70
2022/08/13 00:14:54;;;;;;;;;;;23.40;81.90;;;;;;2012823;28;19996;-70
2022/08/13 00:15:52;;;;;;;;;;;23.40;82.00;;;;;;2012643;28;19913;-71
2022/08/13 00:16:54;;;;;;;;;;;23.40;82.20;;;;;;2016145;28;19989;-68
2022/08/13 00:17:53;;;;;;;;;;;23.40;82.30;;;;;;2012818;28;20413;-70
2022/08/13 00:18:51;;;;;;;;;;;23.40;82.50;;;;;;2013436;28;19982;-69
2022/08/13 00:19:50;;;;;;;;;;;23.40;79.80;;;;;;2017522;28;19904;-71
2022/08/13 00:20:50;;;;;;;;;;;23.40;80.40;;;;;;2012850;28;19916;-71
2022/08/13 00:21:49;;;;;;;;;;;23.40;80.30;;;;;;2012763;28;19936;-70
2022/08/13 00:22:48;;;;;;;;;;;23.40;80.30;;;;;;2018264;28;19906;-69
2022/08/13 00:23:53;;;;;;;;;;;23.40;80.50;;;;;;2014881;28;19913;-69
2022/08/13 00:24:52;;;;;;;;;;;23.40;80.50;;;;;;2012915;28;19963;-71
2022/08/13 00:25:54;;;;;;;;;;;23.40;80.30;;;;;;2012784;28;19943;-71
2022/08/13 00:26:52;;;;;;;;;;;23.40;80.30;;;;;;2012919;28;20363;-71
2022/08/13 00:27:56;;;;;;;;;;;23.40;80.30;;;;;;2012727;28;20284;-69
2022/08/13 00:28:55;;;;;;;;;;;23.40;80.20;;;;;;2012825;28;20356;-69
2022/08/13 00:29:54;;;;;;;;;;;23.40;80.40;;;;;;2015144;28;19932;-70
2022/08/13 00:30:53;;;;;;;;;;;23.40;80.20;;;;;;2017395;28;20123;-72
2022/08/13 00:31:51;;;;;;;;;;;23.30;80.00;;;;;;2013340;28;20015;-71
2022/08/13 00:32:50;;;;;;;;;;;23.40;80.20;;;;;;2017867;28;20149;-69
2022/08/13 00:33:49;;;;;;;;;;;23.40;80.20;;;;;;2012856;28;19909;-71
2022/08/13 00:34:49;;;;;;;;;;;23.40;80.10;;;;;;2012038;28;19909;-70
2022/08/13 00:35:48;;;;;;;;;;;23.40;80.20;;;;;;2012884;28;19920;-71
2022/08/13 00:36:47;;;;;;;;;;;23.40;80.30;;;;;;2013916;28;20288;-70
2022/08/13 00:37:46;;;;;;;;;;;23.40;80.20;;;;;;2013483;28;19909;-70
2022/08/13 00:38:46;;;;;;;;;;;23.30;80.80;;;;;;2011958;28;19916;-69
2022/08/13 00:39:46;;;;;;;;;;;23.40;80.30;;;;;;2012186;28;20407;-72
2022/08/13 00:40:45;;;;;;;;;;;23.40;80.30;;;;;;2012744;28;19909;-69
2022/08/13 00:41:45;;;;;;;;;;;23.30;80.20;;;;;;2012791;28;19970;-70
2022/08/13 00:42:43;;;;;;;;;;;23.40;80.40;;;;;;2017792;28;19916;-70
2022/08/13 00:43:41;;;;;;;;;;;23.40;80.50;;;;;;2015392;28;19909;-71
2022/08/13 00:44:40;;;;;;;;;;;23.30;80.30;;;;;;2013241;28;19932;-71
2022/08/13 00:45:38;;;;;;;;;;;23.30;80.70;;;;;;2013717;28;19916;-70
2022/08/13 00:46:38;;;;;;;;;;;23.40;80.40;;;;;;2014093;28;19909;-71
2022/08/13 00:48:54;;;;;;;;;;;23.30;80.20;;;;;;2013942;28;19913;-70
2022/08/13 00:49:52;;;;;;;;;;;23.40;80.50;;;;;;2013374;28;19921;-71
2022/08/13 00:50:52;;;;;;;;;;;23.30;80.40;;;;;;2013209;28;19974;-71
2022/08/13 00:51:51;;;;;;;;;;;23.40;80.40;;;;;;2013005;28;19916;-70
2022/08/13 00:52:49;;;;;;;;;;;23.30;80.40;;;;;;2012989;28;19917;-71
2022/08/13 00:53:48;;;;;;;;;;;23.30;80.30;;;;;;2012807;28;20356;-70
2022/08/13 00:54:49;;;;;;;;;;;23.40;80.40;;;;;;2012795;28;19909;-70
2022/08/13 00:55:48;;;;;;;;;;;23.40;80.40;;;;;;2012485;28;20012;-70
2022/08/13 00:56:48;;;;;;;;;;;23.40;80.40;;;;;;2019459;28;19940;-70
2022/08/13 00:57:48;;;;;;;;;;;23.40;80.60;;;;;;2016260;28;19960;-70
2022/08/13 00:58:46;;;;;;;;;;;23.30;80.50;;;;;;2014060;28;20419;-70
2022/08/13 00:59:45;;;;;;;;;;;23.40;80.60;;;;;;2014135;28;20000;-70
2022/08/13 01:00:47;;;;;;;;;;;23.30;80.50;;;;;;2014026;28;19909;-71
2022/08/13 01:01:46;;;;;;;;;;;23.30;80.60;;;;;;2014064;28;19974;-71
2022/08/13 01:02:46;;;;;;;;;;;23.30;80.80;;;;;;2018640;28;19909;-70
2022/08/13 01:03:45;;;;;;;;;;;23.40;80.70;;;;;;2016159;28;19948;-70
2022/08/13 01:04:46;;;;;;;;;;;23.30;80.60;;;;;;2014091;28;19915;-71
2022/08/13 01:05:46;;;;;;;;;;;23.30;80.50;;;;;;2013398;28;19994;-72
2022/08/13 01:06:45;;;;;;;;;;;23.40;80.60;;;;;;2013498;28;19920;-71
2022/08/13 01:07:44;;;;;;;;;;;23.40;80.60;;;;;;2014309;28;19909;-71
2022/08/13 01:08:42;;;;;;;;;;;23.30;80.50;;;;;;2014167;28;20352;-71
2022/08/13 01:09:41;;;;;;;;;;;23.30;80.60;;;;;;2013878;28;20280;-70
2022/08/13 01:10:41;;;;;;;;;;;23.40;80.70;;;;;;2014033;28;19910;-70
2022/08/13 01:11:41;;;;;;;;;;;23.30;80.60;;;;;;2013937;28;19921;-71
2022/08/13 01:12:39;;;;;;;;;;;23.40;80.90;;;;;;2017910;28;19910;-70
2022/08/13 01:13:39;;;;;;;;;;;23.40;80.70;;;;;;2014226;28;19916;-70
2022/08/13 01:14:38;;;;;;;;;;;23.40;80.80;;;;;;2014086;28;19909;-70
2022/08/13 01:15:38;;;;;;;;;;;23.40;80.80;;;;;;2013913;28;19910;-70
2022/08/13 01:16:37;;;;;;;;;;;23.40;80.80;;;;;;2016112;28;20012;-70
2022/08/13 01:17:35;;;;;;;;;;;23.30;80.60;;;;;;2015077;28;20359;-70
2022/08/13 01:18:36;;;;;;;;;;;23.30;80.60;;;;;;2013982;28;19909;-71
2022/08/13 01:19:36;;;;;;;;;;;23.30;80.60;;;;;;2013997;28;19909;-71
2022/08/13 01:20:42;;;;;;;;;;;23.30;80.60;;;;;;2013899;28;19915;-70
2022/08/13 01:21:44;;;;;;;;;;;23.30;80.70;;;;;;2014058;28;19935;-70
2022/08/13 01:22:44;;;;;;;;;;;23.30;80.70;;;;;;2018505;28;19909;-70
2022/08/13 01:23:46;;;;;;;;;;;23.30;80.70;;;;;;2014935;28;20268;-70
2022/08/13 01:24:45;;;;;;;;;;;23.40;80.80;;;;;;2015125;28;19960;-69
2022/08/13 01:25:44;;;;;;;;;;;23.30;80.70;;;;;;2014688;28;19932;-71
2022/08/13 01:26:43;;;;;;;;;;;23.30;80.60;;;;;;2013911;28;20382;-69
2022/08/13 01:27:41;;;;;;;;;;;23.30;80.50;;;;;;2013985;28;19908;-72
2022/08/13 01:28:40;;;;;;;;;;;23.30;80.70;;;;;;2013794;28;19913;-70
2022/08/13 01:29:39;;;;;;;;;;;23.30;80.70;;;;;;2013764;28;19909;-71
2022/08/13 01:30:39;;;;;;;;;;;23.40;80.80;;;;;;2013838;28;19909;-72
2022/08/13 01:31:40;;;;;;;;;;;23.30;80.60;;;;;;2013836;28;19920;-72
2022/08/13 01:32:38;;;;;;;;;;;23.30;80.70;;;;;;2013612;28;19909;-70
2022/08/13 01:33:38;;;;;;;;;;;23.30;80.80;;;;;;2013829;28;20411;-72
2022/08/13 01:34:36;;;;;;;;;;;23.30;80.80;;;;;;2013814;28;19909;-72
2022/08/13 01:35:35;;;;;;;;;;;23.30;80.90;;;;;;2013797;28;19963;-70
2022/08/13 01:36:35;;;;;;;;;;;23.30;80.80;;;;;;2013982;28;19942;-71
2022/08/13 01:37:34;;;;;;;;;;;23.30;80.90;;;;;;2013768;28;19916;-72
2022/08/13 01:38:34;;;;;;;;;;;23.30;80.90;;;;;;2013746;28;20008;-72
2022/08/13 01:39:32;;;;;;;;;;;23.30;80.80;;;;;;2013765;28;19920;-72
2022/08/13 01:40:31;;;;;;;;;;;23.40;80.90;;;;;;2013622;28;19955;-70
2022/08/13 01:41:30;;;;;;;;;;;23.30;80.80;;;;;;2013893;28;19959;-72
2022/08/13 01:42:36;;;;;;;;;;;23.30;80.80;;;;;;2013628;28;19909;-71
2022/08/13 01:43:35;;;;;;;;;;;23.40;80.90;;;;;;2013891;28;20256;-70
2022/08/13 01:44:35;;;;;;;;;;;23.30;80.80;;;;;;2013814;28;19955;-71
2022/08/13 01:45:34;;;;;;;;;;;23.30;80.80;;;;;;2013667;28;19959;-71
2022/08/13 01:50:29;;;;;;;;;;;23.40;80.90;;;;;;2013782;28;19910;-71
2022/08/13 01:50:31;;;;;;;;;;;23.30;80.90;;;;;;2013683;28;20361;-71
2022/08/13 01:51:31;;;;;;;;;;;23.30;80.90;;;;;;2013652;28;19916;-70
2022/08/13 01:52:29;;;;;;;;;;;23.30;81.00;;;;;;2012985;28;19909;-71
2022/08/13 01:53:29;;;;;;;;;;;23.30;80.90;;;;;;2013121;28;20372;-71
2022/08/13 01:54:28;;;;;;;;;;;23.30;80.90;;;;;;2013753;28;19909;-70
2022/08/13 01:55:29;;;;;;;;;;;23.30;81.00;;;;;;2013600;28;20376;-72
2022/08/13 01:56:29;;;;;;;;;;;23.30;81.30;;;;;;2013567;28;19916;-71
2022/08/13 01:57:28;;;;;;;;;;;23.30;81.20;;;;;;2013697;28;19917;-72
2022/08/13 01:58:29;;;;;;;;;;;23.30;80.90;;;;;;2013607;28;19913;-70
2022/08/13 01:59:28;;;;;;;;;;;23.30;81.00;;;;;;2013618;28;20012;-72
2022/08/13 02:00:26;;;;;;;;;;;23.40;81.40;;;;;;2013640;28;20365;-72
2022/08/13 02:01:26;;;;;;;;;;;23.30;81.10;;;;;;2013724;28;19986;-70
2022/08/13 02:02:27;;;;;;;;;;;23.40;81.10;;;;;;2013665;28;20431;-73
2022/08/13 02:03:26;;;;;;;;;;;23.30;81.00;;;;;;2013538;28;19915;-72
2022/08/13 02:04:24;;;;;;;;;;;23.30;81.00;;;;;;2013501;28;19916;-71
2022/08/13 02:05:24;;;;;;;;;;;23.30;81.10;;;;;;2013619;28;19959;-71
2022/08/13 02:06:23;;;;;;;;;;;23.40;81.10;;;;;;2013554;28;19932;-70
2022/08/13 02:07:22;;;;;;;;;;;23.30;81.00;;;;;;2013592;28;19913;-70
2022/08/13 02:08:22;;;;;;;;;;;23.30;81.00;;;;;;2013133;28;19995;-70
2022/08/13 02:09:21;;;;;;;;;;;23.30;81.00;;;;;;2012921;28;20319;-71
2022/08/13 02:10:21;;;;;;;;;;;23.30;81.30;;;;;;2013499;28;19915;-70
2022/08/13 02:11:19;;;;;;;;;;;23.30;81.30;;;;;;2013334;28;20273;-73
2022/08/13 02:12:18;;;;;;;;;;;23.30;81.30;;;;;;2013364;28;19909;-72
2022/08/13 02:13:21;;;;;;;;;;;23.30;81.30;;;;;;2013647;28;19971;-70
2022/08/13 02:14:21;;;;;;;;;;;23.30;81.30;;;;;;2013487;28;19916;-70
2022/08/13 02:15:19;;;;;;;;;;;23.30;81.00;;;;;;2013522;28;20340;-70
2022/08/13 02:16:18;;;;;;;;;;;23.30;81.00;;;;;;2013318;28;20146;-73
2022/08/13 02:17:25;;;;;;;;;;;23.30;81.00;;;;;;2013436;28;20363;-70
2022/08/13 02:18:24;;;;;;;;;;;23.30;80.90;;;;;;2013658;28;19917;-71
2022/08/13 02:19:23;;;;;;;;;;;23.30;80.90;;;;;;2013533;28;20044;-70
2022/08/13 02:20:21;;;;;;;;;;;23.30;81.00;;;;;;2013471;28;19909;-70
2022/08/13 02:21:22;;;;;;;;;;;23.30;81.00;;;;;;2013347;28;19909;-71
2022/08/13 02:22:22;;;;;;;;;;;23.30;80.90;;;;;;2013465;28;19916;-71
2022/08/13 02:23:21;;;;;;;;;;;23.30;81.00;;;;;;2013304;28;20337;-71
2022/08/13 02:24:20;;;;;;;;;;;23.30;80.80;;;;;;2013424;28;19909;-71
2022/08/13 02:25:20;;;;;;;;;;;23.30;80.70;;;;;;2013450;28;20333;-70
2022/08/13 02:26:19;;;;;;;;;;;23.30;80.70;;;;;;2013566;28;20292;-70
2022/08/13 02:27:20;;;;;;;;;;;23.30;80.60;;;;;;2013448;28;19916;-71
2022/08/13 02:28:19;;;;;;;;;;;23.30;80.50;;;;;;2013383;28;19909;-72
2022/08/13 02:29:18;;;;;;;;;;;23.30;80.50;;;;;;2013368;28;19913;-72
2022/08/13 02:30:17;;;;;;;;;;;23.30;80.60;;;;;;2013318;28;19909;-71
2022/08/13 02:31:15;;;;;;;;;;;23.30;80.60;;;;;;2013406;28;19916;-71
2022/08/13 02:32:14;;;;;;;;;;;23.30;80.60;;;;;;2013311;28;20352;-71
2022/08/13 02:33:13;;;;;;;;;;;23.30;80.60;;;;;;2013474;28;19920;-71
2022/08/13 02:34:12;;;;;;;;;;;23.30;80.60;;;;;;2013476;28;19913;-71
2022/08/13 02:35:10;;;;;;;;;;;23.20;80.50;;;;;;2013404;28;19955;-72
2022/08/13 02:36:10;;;;;;;;;;;23.30;80.70;;;;;;2013193;28;19932;-71
2022/08/13 02:37:10;;;;;;;;;;;23.30;80.70;;;;;;2013364;28;20380;-71
2022/08/13 02:38:11;;;;;;;;;;;23.30;80.70;;;;;;2013259;28;19915;-71
2022/08/13 02:39:10;;;;;;;;;;;23.30;80.80;;;;;;2013313;28;19932;-71
2022/08/13 02:41:38;;;;;;;;;;;23.30;80.80;;;;;;2013185;28;19909;-71
2022/08/13 02:41:43;;;;;;;;;;;23.20;80.90;;;;;;2013247;28;19962;-71
2022/08/13 02:42:41;;;;;;;;;;;23.30;81.00;;;;;;2013282;28;20338;-70
2022/08/13 02:43:42;;;;;;;;;;;23.20;81.10;;;;;;2013215;28;19949;-70
2022/08/13 02:44:40;;;;;;;;;;;23.20;81.00;;;;;;2013169;28;19909;-71
2022/08/13 02:45:39;;;;;;;;;;;23.20;81.20;;;;;;2013160;28;19909;-72
2022/08/13 02:46:42;;;;;;;;;;;23.20;81.20;;;;;;2013173;28;19909;-71
2022/08/13 02:47:40;;;;;;;;;;;23.20;81.70;;;;;;2013237;28;20000;-71
2022/08/13 02:48:40;;;;;;;;;;;23.20;81.50;;;;;;2013129;28;19916;-71
2022/08/13 02:49:40;;;;;;;;;;;23.20;81.70;;;;;;2013193;28;19917;-72
2022/08/13 02:50:45;;;;;;;;;;;23.20;81.90;;;;;;2013250;28;20359;-72
2022/08/13 02:51:47;;;;;;;;;;;23.20;82.30;;;;;;2012744;28;19916;-72
2022/08/13 02:52:46;;;;;;;;;;;23.20;82.60;;;;;;2012546;28;19943;-71
2022/08/13 02:53:44;;;;;;;;;;;23.20;83.00;;;;;;2013375;28;20054;-71
2022/08/13 02:54:44;;;;;;;;;;;23.30;84.00;;;;;;2013161;28;19986;-70
2022/08/13 02:55:43;;;;;;;;;;;23.30;81.00;;;;;;2013103;28;19909;-71
2022/08/13 02:56:42;;;;;;;;;;;23.20;80.70;;;;;;2013187;28;19959;-71
2022/08/13 02:57:40;;;;;;;;;;;23.20;80.70;;;;;;2013174;28;19967;-72
2022/08/13 02:58:41;;;;;;;;;;;23.20;80.80;;;;;;2013099;28;19929;-70
2022/08/13 02:59:41;;;;;;;;;;;23.30;81.00;;;;;;2013212;28;20335;-73
2022/08/13 03:00:41;;;;;;;;;;;23.30;81.10;;;;;;2013237;28;19909;-72
2022/08/13 03:01:40;;;;;;;;;;;23.20;81.20;;;;;;2013203;28;19916;-71
2022/08/13 03:02:43;;;;;;;;;;;23.20;81.10;;;;;;2013117;28;20321;-71
2022/08/13 03:03:41;;;;;;;;;;;23.20;81.10;;;;;;2013034;28;19913;-71
2022/08/13 03:04:43;;;;;;;;;;;23.20;81.20;;;;;;2013133;28;19910;-70
2022/08/13 03:05:42;;;;;;;;;;;23.20;81.30;;;;;;2013130;28;19913;-71
2022/08/13 03:06:42;;;;;;;;;;;23.30;81.40;;;;;;2012391;28;20355;-72
2022/08/13 03:07:41;;;;;;;;;;;23.20;81.60;;;;;;2012495;28;19956;-71
2022/08/13 03:08:40;;;;;;;;;;;23.20;81.80;;;;;;2013133;28;19909;-72
2022/08/13 03:09:38;;;;;;;;;;;23.20;81.70;;;;;;2013064;28;20345;-70
2022/08/13 03:10:37;;;;;;;;;;;23.30;82.00;;;;;;2013053;28;20047;-72
2022/08/13 03:11:36;;;;;;;;;;;23.20;82.00;;;;;;2012871;28;19949;-70
2022/08/13 03:12:35;;;;;;;;;;;23.20;81.80;;;;;;2013086;28;19915;-70
2022/08/13 03:13:36;;;;;;;;;;;23.20;82.00;;;;;;2012917;28;19916;-70
2022/08/13 03:14:35;;;;;;;;;;;23.20;82.10;;;;;;2012971;28;20364;-72
2022/08/13 03:15:34;;;;;;;;;;;23.20;82.20;;;;;;2012982;28;19909;-72
2022/08/13 03:16:33;;;;;;;;;;;23.20;82.50;;;;;;2012850;28;20011;-70
2022/08/13 03:17:32;;;;;;;;;;;23.20;82.80;;;;;;2013048;28;19909;-70
2022/08/13 03:18:31;;;;;;;;;;;23.20;83.20;;;;;;2013179;28;19919;-72
2022/08/13 03:19:30;;;;;;;;;;;23.20;84.00;;;;;;2013106;28;19909;-72
2022/08/13 03:20:28;;;;;;;;;;;23.20;80.40;;;;;;2012699;28;19909;-71
2022/08/13 03:21:28;;;;;;;;;;;23.20;80.80;;;;;;2012939;28;19909;-71
2022/08/13 03:22:27;;;;;;;;;;;23.20;80.80;;;;;;2012931;28;19909;-70
2022/08/13 03:23:27;;;;;;;;;;;23.20;80.90;;;;;;2012919;28;19910;-72
2022/08/13 03:24:26;;;;;;;;;;;23.20;80.70;;;;;;2013108;28;19992;-70
2022/08/13 03:25:25;;;;;;;;;;;23.20;80.60;;;;;;2013071;28;19909;-70
2022/08/13 03:26:24;;;;;;;;;;;23.20;80.70;;;;;;2012894;28;19916;-72
2022/08/13 03:27:26;;;;;;;;;;;23.20;80.70;;;;;;2012996;28;19909;-72
2022/08/13 03:28:25;;;;;;;;;;;23.20;80.80;;;;;;2013016;28;20283;-70
2022/08/13 03:29:24;;;;;;;;;;;23.20;80.80;;;;;;2012847;28;19909;-70
2022/08/13 03:30:22;;;;;;;;;;;23.20;80.90;;;;;;2012992;28;19909;-72
2022/08/13 03:31:22;;;;;;;;;;;23.20;80.90;;;;;;2012869;28;19920;-71
2022/08/13 03:32:20;;;;;;;;;;;23.10;80.90;;;;;;2012963;28;19951;-71
2022/08/13 03:33:18;;;;;;;;;;;23.20;80.90;;;;;;2012939;28;19909;-71
2022/08/13 03:34:20;;;;;;;;;;;23.20;80.90;;;;;;2012199;28;20031;-70
2022/08/13 03:35:20;;;;;;;;;;;23.10;80.90;;;;;;2012397;28;20345;-70
2022/08/13 03:36:18;;;;;;;;;;;23.10;80.90;;;;;;2014304;28;19921;-70
2022/08/13 03:37:16;;;;;;;;;;;23.10;80.80;;;;;;2013957;28;20388;-71
2022/08/13 03:38:15;;;;;;;;;;;23.20;80.90;;;;;;2016524;28;20323;-71
2022/08/13 03:39:14;;;;;;;;;;;23.20;80.80;;;;;;2017591;28;20406;-71
2022/08/13 03:40:13;;;;;;;;;;;23.20;80.90;;;;;;2014187;28;19909;-70
2022/08/13 03:41:14;;;;;;;;;;;23.10;80.90;;;;;;2014318;28;20380;-71
2022/08/13 03:42:12;;;;;;;;;;;23.20;81.00;;;;;;2016827;28;20272;-70
2022/08/13 03:43:11;;;;;;;;;;;23.10;80.90;;;;;;2013569;28;19953;-71
2022/08/13 03:44:09;;;;;;;;;;;23.20;81.00;;;;;;2013092;28;20371;-70
2022/08/13 03:45:08;;;;;;;;;;;23.10;80.90;;;;;;2013088;28;19909;-71
2022/08/13 03:46:08;;;;;;;;;;;23.20;81.10;;;;;;2013156;28;20268;-70
2022/08/13 03:47:07;;;;;;;;;;;23.20;81.10;;;;;;2013315;28;19909;-69
2022/08/13 03:48:06;;;;;;;;;;;23.20;81.00;;;;;;2012991;28;19909;-70
2022/08/13 03:49:05;;;;;;;;;;;23.10;81.00;;;;;;2012722;28;19932;-72
2022/08/13 03:50:04;;;;;;;;;;;23.10;81.10;;;;;;2012792;28;19909;-72
2022/08/13 03:51:03;;;;;;;;;;;23.10;81.00;;;;;;2012649;28;19916;-73
2022/08/13 03:52:02;;;;;;;;;;;23.10;81.10;;;;;;2012850;28;19955;-70
2022/08/13 03:53:01;;;;;;;;;;;23.20;81.20;;;;;;2012748;28;19913;-70
2022/08/13 03:53:59;;;;;;;;;;;23.10;81.10;;;;;;2012946;28;19941;-72
2022/08/13 03:54:58;;;;;;;;;;;23.10;81.00;;;;;;2012828;28;20419;-71
2022/08/13 03:55:58;;;;;;;;;;;23.20;81.00;;;;;;2012751;28;19936;-70
2022/08/13 03:56:56;;;;;;;;;;;23.20;81.10;;;;;;2012787;28;19996;-72
2022/08/13 03:57:55;;;;;;;;;;;23.10;81.10;;;;;;2012740;28;19909;-71
2022/08/13 03:58:54;;;;;;;;;;;23.10;81.00;;;;;;2012775;28;19909;-71
2022/08/13 03:59:52;;;;;;;;;;;23.10;81.00;;;;;;2012852;28;20320;-71
2022/08/13 04:00:51;;;;;;;;;;;23.20;81.10;;;;;;2012835;28;19959;-70
2022/08/13 04:01:51;;;;;;;;;;;23.10;81.00;;;;;;2012763;28;20333;-70
2022/08/13 04:02:52;;;;;;;;;;;23.10;81.10;;;;;;2012666;28;19916;-71
2022/08/13 04:03:51;;;;;;;;;;;23.10;81.10;;;;;;2012639;28;19910;-72
2022/08/13 04:04:50;;;;;;;;;;;23.10;81.40;;;;;;2012697;28;19996;-69
2022/08/13 04:05:53;;;;;;;;;;;23.00;81.00;;;;;;2012911;28;19917;-71
2022/08/13 04:06:52;;;;;;;;;;;23.10;81.10;;;;;;2012958;28;20250;-71
2022/08/13 04:07:51;;;;;;;;;;;23.10;81.10;;;;;;2012783;28;20008;-71
2022/08/13 04:08:50;;;;;;;;;;;23.10;81.00;;;;;;2012768;28;19909;-70
2022/08/13 04:09:49;;;;;;;;;;;23.10;81.10;;;;;;2012846;28;20003;-71
2022/08/13 04:10:48;;;;;;;;;;;23.10;81.10;;;;;;2012747;28;20316;-71
2022/08/13 04:11:46;;;;;;;;;;;23.10;81.00;;;;;;2012540;28;20380;-71
2022/08/13 04:12:45;;;;;;;;;;;23.10;81.10;;;;;;2012672;28;19909;-72
2022/08/13 04:13:44;;;;;;;;;;;23.00;81.00;;;;;;2012651;28;19916;-71
2022/08/13 04:14:42;;;;;;;;;;;23.10;81.10;;;;;;2012704;28;19909;-71
2022/08/13 04:15:42;;;;;;;;;;;23.10;81.10;;;;;;2012733;28;19960;-72
2022/08/13 04:16:40;;;;;;;;;;;23.10;81.10;;;;;;2012787;28;19932;-71
2022/08/13 04:17:40;;;;;;;;;;;23.10;81.00;;;;;;2012944;28;19937;-70
2022/08/13 04:18:40;;;;;;;;;;;23.10;81.10;;;;;;2012815;28;19909;-71
2022/08/13 04:19:39;;;;;;;;;;;23.10;81.20;;;;;;2012915;28;19916;-71
2022/08/13 04:20:42;;;;;;;;;;;23.10;81.10;;;;;;2012010;28;19936;-70
2022/08/13 04:21:40;;;;;;;;;;;23.10;81.10;;;;;;2012411;28;20376;-70
2022/08/13 04:22:39;;;;;;;;;;;23.10;81.00;;;;;;2012624;28;19945;-70
2022/08/13 04:23:39;;;;;;;;;;;23.10;81.10;;;;;;2012637;28;19909;-70
2022/08/13 04:24:37;;;;;;;;;;;23.10;81.40;;;;;;2012787;28;20364;-70
2022/08/13 04:25:36;;;;;;;;;;;23.10;81.20;;;;;;2012655;28;19909;-72
2022/08/13 04:26:34;;;;;;;;;;;23.20;81.20;;;;;;2012823;28;19916;-70
2022/08/13 04:27:34;;;;;;;;;;;23.10;81.20;;;;;;2012607;28;19909;-70
2022/08/13 04:28:32;;;;;;;;;;;23.20;81.50;;;;;;2012787;28;19916;-72
2022/08/13 04:29:31;;;;;;;;;;;23.00;81.10;;;;;;2012584;28;20288;-71
2022/08/13 04:30:29;;;;;;;;;;;23.10;81.20;;;;;;2012640;28;20012;-70
2022/08/13 04:31:28;;;;;;;;;;;23.20;81.30;;;;;;2012562;28;19962;-72
2022/08/13 04:32:27;;;;;;;;;;;23.10;81.20;;;;;;2013354;28;19916;-71
2022/08/13 04:33:26;;;;;;;;;;;23.10;81.30;;;;;;2014235;28;20290;-71
2022/08/13 04:34:26;;;;;;;;;;;23.20;81.30;;;;;;2014383;28;19939;-72
2022/08/13 04:35:25;;;;;;;;;;;23.10;81.20;;;;;;2014233;28;19956;-72
2022/08/13 04:36:23;;;;;;;;;;;23.10;81.30;;;;;;2014168;28;19924;-71
2022/08/13 04:37:22;;;;;;;;;;;23.10;81.20;;;;;;2014135;28;19909;-71
2022/08/13 04:38:21;;;;;;;;;;;23.10;81.30;;;;;;2014096;28;20003;-70
2022/08/13 04:39:19;;;;;;;;;;;23.10;81.30;;;;;;2014056;28;19909;-71
2022/08/13 04:40:18;;;;;;;;;;;23.10;81.40;;;;;;2014189;28;19916;-70
2022/08/13 04:41:17;;;;;;;;;;;23.10;81.40;;;;;;2014191;28;19992;-70
2022/08/13 04:42:15;;;;;;;;;;;23.10;81.40;;;;;;2014101;28;20343;-70
2022/08/13 04:43:14;;;;;;;;;;;23.10;81.40;;;;;;2014294;28;20004;-71
2022/08/13 04:44:13;;;;;;;;;;;23.10;81.40;;;;;;2014110;28;19909;-71
2022/08/13 04:45:13;;;;;;;;;;;23.10;81.30;;;;;;2014026;28;20487;-70
2022/08/13 04:46:11;;;;;;;;;;;23.10;81.40;;;;;;2014057;28;19948;-71
2022/08/13 04:47:10;;;;;;;;;;;23.10;81.50;;;;;;2014064;28;19909;-71
2022/08/13 04:48:12;;;;;;;;;;;23.10;81.40;;;;;;2014153;28;19934;-71
2022/08/13 04:49:12;;;;;;;;;;;23.10;81.40;;;;;;2014014;28;19915;-71
2022/08/13 04:50:10;;;;;;;;;;;23.10;81.40;;;;;;2014169;28;19963;-70
2022/08/13 04:51:09;;;;;;;;;;;23.10;81.40;;;;;;2014168;28;20299;-71
2022/08/13 04:52:07;;;;;;;;;;;23.10;81.40;;;;;;2014006;28;20337;-70
2022/08/13 04:53:07;;;;;;;;;;;23.10;81.50;;;;;;2013873;28;19910;-71
2022/08/13 04:54:06;;;;;;;;;;;23.10;81.70;;;;;;2013991;28;20360;-71
2022/08/13 04:55:06;;;;;;;;;;;23.10;81.40;;;;;;2013962;28;19932;-72
2022/08/13 04:56:05;;;;;;;;;;;23.10;81.70;;;;;;2013901;28;19913;-73
2022/08/13 04:57:03;;;;;;;;;;;23.10;81.80;;;;;;2014116;28;19909;-72
2022/08/13 04:58:04;;;;;;;;;;;23.00;81.70;;;;;;2013940;28;19910;-70
2022/08/13 04:59:03;;;;;;;;;;;23.10;81.90;;;;;;2013989;28;19932;-70
2022/08/13 05:00:05;;;;;;;;;;;23.10;81.90;;;;;;2014036;28;19912;-73
2022/08/13 05:01:08;;;;;;;;;;;23.10;81.60;;;;;;2014032;28;20356;-71
2022/08/13 05:02:08;;;;;;;;;;;23.10;81.70;;;;;;2014080;28;19910;-71
2022/08/13 05:03:07;;;;;;;;;;;23.00;81.60;;;;;;2014036;28;19915;-70
2022/08/13 05:04:06;;;;;;;;;;;23.10;81.70;;;;;;2014096;28;20472;-71
2022/08/13 05:05:05;;;;;;;;;;;23.10;81.80;;;;;;2013879;28;20179;-70
2022/08/13 05:06:04;;;;;;;;;;;23.00;81.70;;;;;;2013920;28;20353;-71
2022/08/13 05:07:03;;;;;;;;;;;23.10;81.80;;;;;;2013832;28;20344;-73
2022/08/13 05:08:02;;;;;;;;;;;23.10;81.80;;;;;;2014037;28;19913;-70
2022/08/13 05:09:01;;;;;;;;;;;23.10;81.90;;;;;;2013973;28;19909;-72
2022/08/13 05:09:59;;;;;;;;;;;23.10;81.90;;;;;;2014073;28;20004;-72
2022/08/13 05:10:59;;;;;;;;;;;23.10;82.00;;;;;;2014006;28;20280;-72
2022/08/13 05:11:58;;;;;;;;;;;23.00;82.00;;;;;;2013899;28;19975;-72
2022/08/13 05:12:58;;;;;;;;;;;23.10;82.30;;;;;;2013955;28;20031;-70
2022/08/13 05:13:57;;;;;;;;;;;23.10;82.30;;;;;;2013844;28;19910;-70
2022/08/13 05:14:56;;;;;;;;;;;23.00;82.30;;;;;;2013922;28;19909;-69
2022/08/13 05:15:56;;;;;;;;;;;23.10;82.50;;;;;;2005205;28;20392;-69
2022/08/13 05:16:54;;;;;;;;;;;23.10;82.60;;;;;;2005456;28;19916;-70
2022/08/13 05:17:53;;;;;;;;;;;23.20;82.70;;;;;;2013589;28;19915;-73
2022/08/13 05:18:54;;;;;;;;;;;23.10;82.40;;;;;;2013998;28;20077;-70
2022/08/13 05:19:52;;;;;;;;;;;23.10;82.50;;;;;;2013862;28;20391;-72
2022/08/13 05:20:53;;;;;;;;;;;23.10;82.70;;;;;;2013159;28;19913;-71
2022/08/13 05:21:51;;;;;;;;;;;23.10;82.70;;;;;;2013277;28;19920;-70
2022/08/13 05:22:50;;;;;;;;;;;23.20;82.80;;;;;;2013731;28;20043;-70
2022/08/13 05:23:53;;;;;;;;;;;23.10;82.70;;;;;;2014043;28;19969;-71
2022/08/13 05:24:51;;;;;;;;;;;23.20;82.80;;;;;;2013829;28;19956;-71
2022/08/13 05:25:50;;;;;;;;;;;23.20;82.90;;;;;;2013798;28;20066;-72
2022/08/13 05:26:49;;;;;;;;;;;23.00;82.70;;;;;;2013973;28;20329;-72
2022/08/13 05:27:47;;;;;;;;;;;23.10;82.80;;;;;;2013779;28;19909;-69
2022/08/13 05:28:46;;;;;;;;;;;23.10;83.20;;;;;;2013798;28;20011;-72
2022/08/13 05:29:45;;;;;;;;;;;23.10;83.20;;;;;;2013084;28;19909;-72
2022/08/13 05:30:46;;;;;;;;;;;23.10;83.20;;;;;;2013138;28;19941;-72
2022/08/13 05:31:46;;;;;;;;;;;23.10;83.70;;;;;;2013847;28;19909;-71
2022/08/13 05:32:45;;;;;;;;;;;23.10;83.10;;;;;;2013817;28;19941;-71
2022/08/13 05:33:44;;;;;;;;;;;23.10;83.20;;;;;;2013709;28;19917;-70
2022/08/13 05:34:42;;;;;;;;;;;23.10;83.10;;;;;;2013643;28;19955;-70
2022/08/13 05:35:41;;;;;;;;;;;23.10;83.20;;;;;;2013652;28;19909;-70
2022/08/13 05:36:42;;;;;;;;;;;23.10;83.30;;;;;;2013755;28;20276;-71
2022/08/13 05:37:42;;;;;;;;;;;23.10;83.30;;;;;;2013713;28;19909;-71
2022/08/13 05:38:40;;;;;;;;;;;23.10;83.40;;;;;;2013686;28;19916;-71
2022/08/13 05:39:40;;;;;;;;;;;23.10;83.40;;;;;;2013810;28;20276;-71
2022/08/13 05:40:38;;;;;;;;;;;23.20;83.50;;;;;;2013681;28;20387;-70
2022/08/13 05:41:37;;;;;;;;;;;23.10;83.50;;;;;;2013721;28;19924;-72
2022/08/13 05:42:39;;;;;;;;;;;23.10;83.50;;;;;;2013622;28;19927;-71
2022/08/13 05:43:37;;;;;;;;;;;23.10;83.50;;;;;;2013599;28;19913;-71
2022/08/13 05:44:36;;;;;;;;;;;23.10;83.60;;;;;;2013702;28;20417;-71
2022/08/13 05:45:35;;;;;;;;;;;23.10;83.60;;;;;;2013699;28;20352;-71
2022/08/13 05:46:34;;;;;;;;;;;23.20;83.70;;;;;;2013602;28;20003;-71
2022/08/13 05:47:32;;;;;;;;;;;23.10;83.80;;;;;;2013649;28;19917;-71
2022/08/13 05:48:34;;;;;;;;;;;23.10;83.70;;;;;;2013675;28;19914;-70
2022/08/13 05:49:33;;;;;;;;;;;23.10;83.70;;;;;;2013704;28;20383;-72
2022/08/13 05:50:33;;;;;;;;;;;23.20;83.90;;;;;;2013544;28;19914;-72
2022/08/13 05:51:32;;;;;;;;;;;23.10;84.00;;;;;;2013660;28;20004;-70